Rochelle, IL

11:51 PM CDT en Octubre 30, 2014 (GMT -0500)
K9GPC | Change Station
CLOSE
Current Station
Estación meteorológica personal
Location: Rochelle, IL
Altura: 840 ft
Estaciones meteorológicas cercanas

Alt 840 ft 41.94 °N, 89.08 °W | Updated 6 seconds ago

Nublado
Nublado
42.2 ° F
Sensación térmica 39 ° F
N
5.4
Viento Variable Viento desde Oeste
Gusts 5.8 mph

Hoy
Alta -- | Baja -- ° F
--% Posibilidad de precipitaciones
Ayer
Alta -- | Baja -- ° F
Precip. -- pul
7:26 AM 5:52 PM
Creciente, 51% visible
Presión 30.07 pul
Visibilidad 10.0 Millas
Nubes Nublado 4700 ft
Vientos helados 39 ° F
Punto de rocío 4 ° F
Humedad 20%
Precipitaciones 0.00 pul
Espesor de la nieve No disponible.
UV 0 de una escala de 12
Polen .10 de una escala de 12
Calidad del aire No disponible.
Flu Activity No disponible.
METAR KRPJ 310435Z AUTO 28005KT 10SM OVC047 07/04 A3007 RMK AO2 T00670036

More Conditions Fewer Conditions

Presión 30.07 pul
Visibilidad 10.0 Millas
Nubes Nublado 4700 ft
Vientos helados 39 ° F
Punto de rocío 4 ° F
Humedad 20%
Precipitaciones 0.00 pul
Espesor de la nieve No disponible.
UV 0 de una escala de 12
Polen .10 de una escala de 12
Calidad del aire No disponible.
Flu Activity No disponible.
METAR KRPJ 310435Z AUTO 28005KT 10SM OVC047 07/04 A3007 RMK AO2 T00670036

More Conditions Fewer Conditions

10-Day Weather Forecast

Almanac

Astronomía

Oct. 30, 2014 Salida Puesta
Hora real
Crepúsculo civil
Crepúsculo náutico
Crepúsculo astronómico
Luna
Horas de luz
Horas de luz
Tomorrow will be .
, % of the Moon is Illuminated

Extremos de hoy

Máximos del estado Bajos del estado

Community

WunderPhotos

Upload Photos

1,766,567 ¡fotos cargadas!

WunderBlogs® & News

Nearby

Calidad del aire

  Calidad del aire Índice AQ Contaminante
Not available.

Grosos de nieve

Estación Profundido Altura

Actividad de terremotos

Ciudad Distance Mag. Tiempo y dato
Magnitud mínima muestra es 2,5.

Temperaturas de aguas costeras

Lugar Temperatura

Estaciones meteorológicas cercanas